createdAt,value
2024-04-30T00:01:10.982Z,2.28
2024-04-30T00:03:41.964Z,2.72
2024-04-30T00:06:10.224Z,2.35
2024-04-30T00:08:38.246Z,2.50
2024-04-30T00:11:05.896Z,2.75
2024-04-30T00:13:33.461Z,2.78
2024-04-30T00:16:04.651Z,2.50
2024-04-30T00:18:32.258Z,2.60
2024-04-30T00:20:59.871Z,2.47
2024-04-30T00:23:27.504Z,2.65
2024-04-30T00:25:55.000Z,2.50
2024-04-30T00:28:22.571Z,2.47
2024-04-30T00:30:50.110Z,2.28
2024-04-30T00:33:18.047Z,2.35
2024-04-30T00:35:45.542Z,2.10
2024-04-30T00:38:13.195Z,2.50
2024-04-30T00:40:42.111Z,2.85
2024-04-30T00:43:09.846Z,2.70
2024-04-30T00:45:37.394Z,2.50
2024-04-30T00:48:06.298Z,2.45
2024-04-30T00:50:34.696Z,2.30
2024-04-30T00:53:02.932Z,2.50
2024-04-30T00:55:30.664Z,2.45
2024-04-30T00:57:58.363Z,2.08
2024-04-30T01:00:26.050Z,2.70
2024-04-30T01:02:53.650Z,2.25
2024-04-30T01:05:21.137Z,2.38
2024-04-30T01:07:48.705Z,2.25
2024-04-30T01:10:18.051Z,2.42
2024-04-30T01:12:45.722Z,2.25
2024-04-30T01:15:14.147Z,2.38
2024-04-30T01:17:41.807Z,2.88
2024-04-30T01:20:09.862Z,2.50
2024-04-30T01:22:41.730Z,2.75
2024-04-30T01:25:09.490Z,2.20
2024-04-30T01:27:36.990Z,2.35
2024-04-30T01:30:04.952Z,2.60
2024-04-30T01:32:32.756Z,2.80
2024-04-30T01:35:00.476Z,2.78
2024-04-30T01:37:28.240Z,2.30
2024-04-30T01:39:55.848Z,2.38
2024-04-30T01:42:23.453Z,2.50
2024-04-30T01:44:51.053Z,2.53
2024-04-30T01:47:18.569Z,2.63
2024-04-30T01:49:46.121Z,2.67
2024-04-30T01:52:13.734Z,2.60
2024-04-30T01:54:41.321Z,2.38
2024-04-30T01:57:08.855Z,2.50
2024-04-30T01:59:36.464Z,2.20
2024-04-30T02:02:04.234Z,2.67
2024-04-30T02:04:38.741Z,2.55
2024-04-30T02:07:13.684Z,2.55
2024-04-30T02:09:41.186Z,2.30
2024-04-30T02:12:08.767Z,2.33
2024-04-30T02:14:36.294Z,2.25
2024-04-30T02:17:03.989Z,2.30
2024-04-30T02:19:31.714Z,2.30
2024-04-30T02:21:59.397Z,2.40
2024-04-30T02:24:27.097Z,2.40
2024-04-30T02:26:54.704Z,2.53
2024-04-30T02:29:22.717Z,2.40
2024-04-30T02:32:08.933Z,2.33
2024-04-30T02:34:36.504Z,2.67
2024-04-30T02:37:04.275Z,2.00
2024-04-30T02:39:31.954Z,2.40
2024-04-30T02:41:59.461Z,2.35
2024-04-30T02:44:27.083Z,2.40
2024-04-30T02:46:54.618Z,2.83
2024-04-30T02:49:22.210Z,2.45
2024-04-30T02:51:49.742Z,2.47
2024-04-30T02:54:17.258Z,2.67
2024-04-30T02:56:44.846Z,2.47
2024-04-30T02:59:12.516Z,2.70
2024-04-30T03:01:40.089Z,2.17
2024-04-30T03:04:07.967Z,2.28
2024-04-30T03:06:38.839Z,2.35
2024-04-30T03:09:07.438Z,2.53
2024-04-30T03:11:34.957Z,2.30
2024-04-30T03:14:02.610Z,2.47
2024-04-30T03:16:30.239Z,2.78
2024-04-30T03:18:57.889Z,2.75
2024-04-30T03:21:25.420Z,2.90
2024-04-30T03:23:52.993Z,2.67
2024-04-30T03:26:20.541Z,2.47
2024-04-30T03:28:48.147Z,2.80
2024-04-30T03:31:17.413Z,2.30
2024-04-30T03:33:45.212Z,2.40
2024-04-30T03:36:12.791Z,2.67
2024-04-30T03:38:43.400Z,2.20
2024-04-30T03:41:13.301Z,2.50
2024-04-30T03:43:40.962Z,2.28
2024-04-30T03:46:15.378Z,2.70
2024-04-30T03:48:43.407Z,2.70
2024-04-30T03:51:10.960Z,2.80
2024-04-30T03:53:38.520Z,2.75
2024-04-30T03:56:06.317Z,2.53
2024-04-30T03:58:34.043Z,2.85
2024-04-30T04:01:01.883Z,2.40
2024-04-30T04:03:29.600Z,3.03
2024-04-30T04:05:57.493Z,2.42
2024-04-30T04:08:25.170Z,2.47
2024-04-30T04:11:11.644Z,2.45
2024-04-30T04:13:57.902Z,2.65
2024-04-30T04:16:25.538Z,2.30
2024-04-30T04:18:53.075Z,2.55
2024-04-30T04:21:23.464Z,2.42
2024-04-30T04:23:51.829Z,2.33
2024-04-30T04:26:19.385Z,2.30
2024-04-30T04:28:46.993Z,2.50
2024-04-30T04:31:14.568Z,2.22
2024-04-30T04:33:42.160Z,2.20
2024-04-30T04:36:18.642Z,2.20
2024-04-30T04:38:46.231Z,2.33
2024-04-30T04:41:13.801Z,2.50
2024-04-30T04:43:41.441Z,2.58
2024-04-30T04:46:08.999Z,2.47
2024-04-30T04:48:36.643Z,2.30
2024-04-30T04:51:05.982Z,2.30
2024-04-30T04:53:33.573Z,2.33
2024-04-30T04:56:01.126Z,2.58
2024-04-30T04:58:28.771Z,2.22
2024-04-30T05:00:56.448Z,2.15
2024-04-30T05:03:24.150Z,2.30
2024-04-30T05:05:51.750Z,2.20
2024-04-30T05:08:19.447Z,2.25
2024-04-30T05:10:47.084Z,2.38
2024-04-30T05:13:14.826Z,2.40
2024-04-30T05:15:42.371Z,2.10
2024-04-30T05:18:10.090Z,2.20
2024-04-30T05:20:37.635Z,2.20
2024-04-30T05:23:05.400Z,2.33
2024-04-30T05:25:32.936Z,2.38
2024-04-30T05:28:04.258Z,2.50
2024-04-30T05:30:31.973Z,2.65
2024-04-30T05:35:27.032Z,2.38
2024-04-30T05:37:54.738Z,2.70
2024-04-30T05:40:22.388Z,2.33
2024-04-30T05:42:49.980Z,2.15
2024-04-30T05:45:17.631Z,2.80
2024-04-30T05:47:45.256Z,2.25
2024-04-30T05:50:13.797Z,2.40
2024-04-30T05:52:41.368Z,2.22
2024-04-30T05:55:09.432Z,2.72
2024-04-30T05:57:38.641Z,2.53
2024-04-30T06:00:07.273Z,2.10
2024-04-30T06:02:35.103Z,1.83
2024-04-30T06:05:03.146Z,2.17
2024-04-30T06:07:30.861Z,2.60
2024-04-30T06:10:01.448Z,2.30
2024-04-30T06:12:29.144Z,2.22
2024-04-30T06:14:56.695Z,2.67
2024-04-30T06:17:24.382Z,2.30
2024-04-30T06:19:53.922Z,2.28
2024-04-30T06:22:22.356Z,2.85
2024-04-30T06:24:50.258Z,2.50
2024-04-30T06:27:17.992Z,2.33
2024-04-30T06:29:46.397Z,2.25
2024-04-30T06:32:14.285Z,2.25
2024-04-30T06:34:43.508Z,2.45
2024-04-30T06:37:11.629Z,2.78
2024-04-30T06:39:39.360Z,2.40
2024-04-30T06:42:07.146Z,2.75
2024-04-30T06:44:35.055Z,2.30
2024-04-30T06:47:02.661Z,2.40
2024-04-30T06:49:30.180Z,2.38
2024-04-30T06:51:57.783Z,2.65
2024-04-30T06:54:25.390Z,2.20
2024-04-30T06:56:53.000Z,2.60
2024-04-30T06:59:20.600Z,2.55
2024-04-30T07:01:48.291Z,2.35
2024-04-30T07:04:15.969Z,1.90
2024-04-30T07:06:44.152Z,2.45
2024-04-30T07:09:11.779Z,2.10
2024-04-30T07:11:39.460Z,2.20
2024-04-30T07:14:07.116Z,2.38
2024-04-30T07:16:48.513Z,2.08
2024-04-30T07:19:23.808Z,2.00
2024-04-30T07:21:51.458Z,2.00
2024-04-30T07:24:19.068Z,1.98
2024-04-30T07:26:46.681Z,2.45
2024-04-30T07:29:14.340Z,2.33
2024-04-30T07:31:41.927Z,1.90
2024-04-30T07:34:09.665Z,2.00
2024-04-30T07:36:37.194Z,1.80
2024-04-30T07:39:05.212Z,2.08
2024-04-30T07:41:32.759Z,2.50
2024-04-30T07:44:00.475Z,2.38
2024-04-30T07:46:28.190Z,2.40
2024-04-30T07:48:55.879Z,2.20
2024-04-30T07:51:23.445Z,2.47
2024-04-30T07:53:51.073Z,2.65
2024-04-30T07:56:18.622Z,2.05
2024-04-30T07:58:46.362Z,2.63
2024-04-30T08:01:14.666Z,2.13
2024-04-30T08:03:43.072Z,3.13
2024-04-30T08:06:18.592Z,2.35
2024-04-30T08:08:48.607Z,2.22
2024-04-30T08:11:16.539Z,2.42
2024-04-30T08:13:45.615Z,2.38
2024-04-30T08:16:14.139Z,2.75
2024-04-30T08:18:41.836Z,2.42
2024-04-30T08:21:09.400Z,2.30
2024-04-30T08:23:37.103Z,2.53
2024-04-30T08:26:04.890Z,2.88
2024-04-30T08:28:32.464Z,2.40
2024-04-30T08:31:00.423Z,2.75
2024-04-30T08:33:28.450Z,2.35
2024-04-30T08:35:56.044Z,2.47
2024-04-30T08:38:23.743Z,2.38
2024-04-30T08:40:51.429Z,2.42
2024-04-30T08:43:19.747Z,2.78
2024-04-30T08:45:48.168Z,2.35
2024-04-30T08:48:17.722Z,2.33
2024-04-30T08:50:47.223Z,2.38
2024-04-30T08:53:17.172Z,3.00
2024-04-30T08:55:46.613Z,2.13
2024-04-30T08:58:14.515Z,2.65
2024-04-30T09:00:42.156Z,2.90
2024-04-30T09:03:10.165Z,2.38
2024-04-30T09:05:38.778Z,2.50
2024-04-30T09:08:06.720Z,2.30
2024-04-30T09:10:36.129Z,2.58
2024-04-30T09:13:04.107Z,2.30
2024-04-30T09:15:31.771Z,2.20
2024-04-30T09:18:09.534Z,3.17
2024-04-30T09:20:47.246Z,2.55
2024-04-30T09:23:25.904Z,2.25
2024-04-30T09:25:53.880Z,2.15
2024-04-30T09:28:22.232Z,2.70
2024-04-30T09:31:00.396Z,2.40
2024-04-30T09:33:29.479Z,2.22
2024-04-30T09:36:06.716Z,2.50
2024-04-30T09:38:39.765Z,2.22
2024-04-30T09:41:11.851Z,2.28
2024-04-30T09:43:41.153Z,2.45
2024-04-30T09:46:09.523Z,2.70
2024-04-30T09:48:39.983Z,2.50
2024-04-30T09:51:13.440Z,2.50
2024-04-30T09:53:42.076Z,2.47
2024-04-30T09:56:10.340Z,2.53
2024-04-30T09:58:38.680Z,2.42
2024-04-30T10:01:11.554Z,2.55
2024-04-30T10:03:41.254Z,2.38
2024-04-30T10:06:10.384Z,2.50
2024-04-30T10:08:40.756Z,2.13
2024-04-30T10:11:09.029Z,2.40
2024-04-30T10:13:48.275Z,2.85
2024-04-30T10:16:17.350Z,2.88
2024-04-30T10:18:45.574Z,2.78
2024-04-30T10:21:13.886Z,2.60
2024-04-30T10:23:45.368Z,2.45
2024-04-30T10:26:15.234Z,2.80
2024-04-30T10:28:43.142Z,2.70
2024-04-30T10:31:18.664Z,2.47
2024-04-30T10:33:46.984Z,2.53
2024-04-30T10:36:16.298Z,2.58
2024-04-30T10:38:44.198Z,2.85
2024-04-30T10:41:11.882Z,2.70
2024-04-30T10:43:39.659Z,2.50
2024-04-30T10:46:16.762Z,2.75
2024-04-30T10:48:51.764Z,2.63
2024-04-30T10:51:20.900Z,3.10
2024-04-30T10:53:49.681Z,2.70
2024-04-30T10:56:18.936Z,2.25
2024-04-30T10:58:59.278Z,2.33
2024-04-30T11:01:29.155Z,2.45
2024-04-30T11:04:12.956Z,2.15
2024-04-30T11:06:48.501Z,2.30
2024-04-30T11:09:16.682Z,2.72
2024-04-30T11:11:50.801Z,2.47
2024-04-30T11:14:25.113Z,2.60
2024-04-30T11:16:55.602Z,2.97
2024-04-30T11:19:24.112Z,2.30
2024-04-30T11:21:54.223Z,2.40
2024-04-30T11:24:21.926Z,1.90
2024-04-30T11:26:50.873Z,2.17
2024-04-30T11:31:49.604Z,3.08
2024-04-30T11:34:17.292Z,2.10
2024-04-30T11:36:45.197Z,2.20
2024-04-30T11:39:14.122Z,2.50
2024-04-30T11:41:48.805Z,2.63
2024-04-30T11:44:24.188Z,2.10
2024-04-30T11:46:51.864Z,2.38
2024-04-30T11:49:19.694Z,2.42
2024-04-30T11:51:47.308Z,2.10
2024-04-30T11:54:14.989Z,2.05
2024-04-30T11:56:42.684Z,1.90
2024-04-30T11:59:10.394Z,2.40
2024-04-30T12:01:38.126Z,2.08
2024-04-30T12:04:06.047Z,2.50
2024-04-30T12:06:36.499Z,1.98
2024-04-30T12:09:05.995Z,2.30
2024-04-30T12:11:38.790Z,1.90
2024-04-30T12:14:06.622Z,1.83
2024-04-30T12:16:34.325Z,1.80
2024-04-30T12:19:02.678Z,2.08
2024-04-30T12:21:30.372Z,1.95
2024-04-30T12:23:58.109Z,2.22
2024-04-30T12:26:25.712Z,1.80
2024-04-30T12:28:53.374Z,2.35
2024-04-30T12:31:21.035Z,2.08
2024-04-30T12:33:48.749Z,2.03
2024-04-30T12:36:16.459Z,1.95
2024-04-30T12:38:44.113Z,2.00
2024-04-30T12:41:11.810Z,1.70
2024-04-30T12:43:39.852Z,1.73
2024-04-30T12:46:07.661Z,2.33
2024-04-30T12:48:36.120Z,2.00
2024-04-30T12:51:03.938Z,2.10
2024-04-30T12:53:31.630Z,1.80
2024-04-30T12:55:59.399Z,2.08
2024-04-30T12:58:27.256Z,2.17
2024-04-30T13:00:55.177Z,1.98
2024-04-30T13:03:22.977Z,1.75
2024-04-30T13:05:51.054Z,1.70
2024-04-30T13:08:19.429Z,1.90
2024-04-30T13:10:47.091Z,2.00
2024-04-30T13:13:15.220Z,2.00
2024-04-30T13:15:42.807Z,1.90
2024-04-30T13:18:10.472Z,1.85
2024-04-30T13:20:39.651Z,1.63
2024-04-30T13:23:07.408Z,2.38
2024-04-30T13:25:35.049Z,1.80
2024-04-30T13:28:02.826Z,1.80
2024-04-30T13:30:30.390Z,2.10
2024-04-30T13:32:58.225Z,1.50
2024-04-30T13:35:25.911Z,1.88
2024-04-30T13:37:53.732Z,1.90
2024-04-30T13:40:21.449Z,1.63
2024-04-30T13:42:49.416Z,2.00
2024-04-30T13:45:17.122Z,1.80
2024-04-30T13:47:45.191Z,1.70
2024-04-30T13:50:12.914Z,1.77
2024-04-30T13:52:40.588Z,1.83
2024-04-30T13:55:08.364Z,2.22
2024-04-30T13:57:36.126Z,1.83
2024-04-30T14:00:06.663Z,2.00
2024-04-30T14:02:38.522Z,1.80
2024-04-30T14:05:06.717Z,2.03
2024-04-30T14:07:34.398Z,2.33
2024-04-30T14:10:02.415Z,1.98
2024-04-30T14:12:30.030Z,2.30
2024-04-30T14:14:57.854Z,1.75
2024-04-30T14:17:25.541Z,2.15
2024-04-30T14:19:53.363Z,1.50
2024-04-30T14:22:21.116Z,2.03
2024-04-30T14:24:48.769Z,2.00
2024-04-30T14:27:16.365Z,1.98
2024-04-30T14:29:45.603Z,1.88
2024-04-30T14:32:13.301Z,2.20
2024-04-30T14:34:41.155Z,1.88
2024-04-30T14:37:08.886Z,2.10
2024-04-30T14:39:36.654Z,1.90
2024-04-30T14:42:04.346Z,2.00
2024-04-30T14:44:32.030Z,2.17
2024-04-30T14:46:59.628Z,1.95
2024-04-30T14:49:27.260Z,1.80
2024-04-30T14:51:54.851Z,1.90
2024-04-30T14:54:22.628Z,1.90
2024-04-30T14:56:52.514Z,2.50
2024-04-30T14:59:23.138Z,2.10
2024-04-30T15:04:18.562Z,2.03
2024-04-30T15:06:46.305Z,19.88
2024-04-30T15:09:14.090Z,2.28
2024-04-30T15:11:41.701Z,2.20
2024-04-30T15:14:09.470Z,2.20
2024-04-30T15:16:43.885Z,2.25
2024-04-30T15:19:11.843Z,2.05
2024-04-30T15:21:43.665Z,1.98
2024-04-30T15:24:11.370Z,2.58
2024-04-30T15:26:39.628Z,2.17
2024-04-30T15:29:07.540Z,2.15
2024-04-30T15:31:35.185Z,2.42
2024-04-30T15:34:02.876Z,2.30
2024-04-30T15:36:30.471Z,2.00
2024-04-30T15:38:58.155Z,2.42
2024-04-30T15:41:25.747Z,2.00
2024-04-30T15:43:53.576Z,2.10
2024-04-30T15:46:21.282Z,2.20
2024-04-30T15:48:51.207Z,2.30
2024-04-30T15:51:19.532Z,2.20
2024-04-30T15:53:47.187Z,2.50
2024-04-30T15:56:17.747Z,2.13
2024-04-30T15:58:47.656Z,2.00
2024-04-30T16:01:16.082Z,2.40
2024-04-30T16:03:45.139Z,2.17
2024-04-30T16:06:14.424Z,2.10
2024-04-30T16:08:42.276Z,2.05
2024-04-30T16:11:11.618Z,2.10
2024-04-30T16:13:41.771Z,1.70
2024-04-30T16:16:16.433Z,1.88
2024-04-30T16:18:48.151Z,2.00
2024-04-30T16:21:17.074Z,1.58
2024-04-30T16:23:45.111Z,1.88
2024-04-30T16:26:12.905Z,1.90
2024-04-30T16:28:44.532Z,1.77
2024-04-30T16:31:15.361Z,1.90
2024-04-30T16:33:43.927Z,2.25
2024-04-30T16:36:21.348Z,2.28
2024-04-30T16:38:50.707Z,2.20
2024-04-30T16:41:18.468Z,2.55
2024-04-30T16:43:46.187Z,1.80
2024-04-30T16:46:13.826Z,2.05
2024-04-30T16:48:42.461Z,2.40
2024-04-30T16:51:14.445Z,2.20
2024-04-30T16:53:43.636Z,2.30
2024-04-30T16:56:12.170Z,2.40
2024-04-30T16:58:39.882Z,2.13
2024-04-30T17:01:07.757Z,2.20
2024-04-30T17:03:40.630Z,2.78
2024-04-30T17:06:12.345Z,2.75
2024-04-30T17:08:41.294Z,2.50
2024-04-30T17:11:11.057Z,2.35
2024-04-30T17:13:45.585Z,2.30
2024-04-30T17:16:23.720Z,2.10
2024-04-30T17:18:52.057Z,2.38
2024-04-30T17:21:23.003Z,2.20
2024-04-30T17:23:51.133Z,2.83
2024-04-30T17:26:26.546Z,2.55
2024-04-30T17:28:55.470Z,2.15
2024-04-30T17:31:23.364Z,2.40
2024-04-30T17:33:56.291Z,2.88
2024-04-30T17:36:24.348Z,3.00
2024-04-30T17:38:52.167Z,2.20
2024-04-30T17:41:27.679Z,2.30
2024-04-30T17:43:55.605Z,2.67
2024-04-30T17:46:26.244Z,2.85
2024-04-30T17:48:56.506Z,2.45
2024-04-30T17:51:28.612Z,2.58
2024-04-30T17:53:56.311Z,2.25
2024-04-30T17:56:23.918Z,2.63
2024-04-30T17:58:51.757Z,2.50
2024-04-30T18:01:20.050Z,2.65
2024-04-30T18:03:54.900Z,2.40
2024-04-30T18:06:23.426Z,2.30
2024-04-30T18:08:57.873Z,2.70
2024-04-30T18:11:26.752Z,2.42
2024-04-30T18:13:55.184Z,2.88
2024-04-30T18:16:23.170Z,2.50
2024-04-30T18:18:51.522Z,2.55
2024-04-30T18:21:20.450Z,2.65
2024-04-30T18:23:49.231Z,2.70
2024-04-30T18:26:16.954Z,2.50
2024-04-30T18:28:51.283Z,2.50
2024-04-30T18:31:19.491Z,2.53
2024-04-30T18:33:47.393Z,2.45
2024-04-30T18:36:15.307Z,2.67
2024-04-30T18:38:44.513Z,2.72
2024-04-30T18:41:24.214Z,2.53
2024-04-30T18:43:55.944Z,3.08
2024-04-30T18:46:23.615Z,2.88
2024-04-30T18:48:52.064Z,2.50
2024-04-30T18:51:20.527Z,2.55
2024-04-30T18:53:48.513Z,2.80
2024-04-30T18:56:18.933Z,2.70
2024-04-30T18:58:47.820Z,2.83
2024-04-30T19:01:18.768Z,2.75
2024-04-30T19:03:49.474Z,2.70
2024-04-30T19:06:21.592Z,3.08
2024-04-30T19:08:50.743Z,2.85
2024-04-30T19:11:18.822Z,2.40
2024-04-30T19:13:46.529Z,2.60
2024-04-30T19:16:14.752Z,2.70
2024-04-30T19:18:44.195Z,3.00
2024-04-30T19:21:12.903Z,3.10
2024-04-30T19:23:40.670Z,2.78
2024-04-30T19:26:14.424Z,2.83
2024-04-30T19:28:43.225Z,2.80
2024-04-30T19:31:17.388Z,2.85
2024-04-30T19:33:45.267Z,2.50
2024-04-30T19:36:20.548Z,2.70
2024-04-30T19:38:48.728Z,2.85
2024-04-30T19:41:17.345Z,2.70
2024-04-30T19:43:45.099Z,2.83
2024-04-30T19:46:14.801Z,2.45
2024-04-30T19:48:43.207Z,2.38
2024-04-30T19:51:10.946Z,2.28
2024-04-30T19:53:38.690Z,2.67
2024-04-30T19:56:06.769Z,2.67
2024-04-30T19:58:34.409Z,3.25
2024-04-30T20:01:02.005Z,3.08
2024-04-30T20:03:29.803Z,3.15
2024-04-30T20:05:57.701Z,3.13
2024-04-30T20:08:25.530Z,2.70
2024-04-30T20:10:53.156Z,2.70
2024-04-30T20:13:24.341Z,2.95
2024-04-30T20:15:52.075Z,2.72
2024-04-30T20:18:19.812Z,2.72
2024-04-30T20:20:47.610Z,3.00
2024-04-30T20:23:15.225Z,2.85
2024-04-30T20:25:43.335Z,2.72
2024-04-30T20:28:10.945Z,2.53
2024-04-30T20:30:38.657Z,2.50
2024-04-30T20:33:06.327Z,2.97
2024-04-30T20:35:34.116Z,2.80
2024-04-30T20:38:01.647Z,3.45
2024-04-30T20:40:29.498Z,2.85
2024-04-30T20:42:57.131Z,2.70
2024-04-30T20:45:24.873Z,2.95
2024-04-30T20:47:52.674Z,3.35
2024-04-30T20:50:20.451Z,4.18
2024-04-30T20:52:48.018Z,3.40
2024-04-30T20:55:15.669Z,5.53
2024-04-30T20:57:44.299Z,6.32
2024-04-30T21:00:12.729Z,6.40
2024-04-30T21:02:40.359Z,8.00
2024-04-30T21:05:08.071Z,7.38
2024-04-30T21:07:35.789Z,5.32
2024-04-30T21:10:03.702Z,5.15
2024-04-30T21:12:31.346Z,3.92
2024-04-30T21:14:58.971Z,3.83
2024-04-30T21:17:26.544Z,3.40
2024-04-30T21:19:57.382Z,2.70
2024-04-30T21:22:26.189Z,3.53
2024-04-30T21:24:53.798Z,3.08
2024-04-30T21:27:21.588Z,2.97
2024-04-30T21:29:49.216Z,3.05
2024-04-30T21:32:16.857Z,3.05
2024-04-30T21:34:45.038Z,3.40
2024-04-30T21:37:12.632Z,3.20
2024-04-30T21:39:40.334Z,2.90
2024-04-30T21:42:08.527Z,2.58
2024-04-30T21:44:36.080Z,3.10
2024-04-30T21:47:03.892Z,3.55
2024-04-30T21:49:31.518Z,3.42
2024-04-30T21:51:59.375Z,3.20
2024-04-30T21:54:27.091Z,4.07
2024-04-30T21:56:54.713Z,4.30
2024-04-30T21:59:22.365Z,5.80
2024-04-30T22:01:50.061Z,4.38
2024-04-30T22:04:20.406Z,4.10
2024-04-30T22:06:48.434Z,4.40
2024-04-30T22:09:15.987Z,3.60
2024-04-30T22:11:43.742Z,4.07
2024-04-30T22:14:11.289Z,6.97
2024-04-30T22:16:38.879Z,9.55
2024-04-30T22:19:06.513Z,8.20
2024-04-30T22:21:34.261Z,9.27
2024-04-30T22:24:01.971Z,13.27
2024-04-30T22:26:29.605Z,11.13
2024-04-30T22:28:57.204Z,10.35
2024-04-30T22:31:24.890Z,11.00
2024-04-30T22:33:52.639Z,9.10
2024-04-30T22:36:20.425Z,7.82
2024-04-30T22:38:48.006Z,7.95
2024-04-30T22:41:15.588Z,9.48
2024-04-30T22:43:43.269Z,7.45
2024-04-30T22:46:14.727Z,8.40
2024-04-30T22:48:43.417Z,5.30
2024-04-30T22:51:11.088Z,6.50
2024-04-30T22:53:47.209Z,5.72
2024-04-30T22:56:18.249Z,4.07
2024-04-30T22:58:45.906Z,4.05
2024-04-30T23:01:13.820Z,3.40
2024-04-30T23:03:41.547Z,2.80
2024-04-30T23:06:09.280Z,2.63
2024-04-30T23:08:39.788Z,3.08
2024-04-30T23:11:07.513Z,3.05
2024-04-30T23:13:35.202Z,2.97
2024-04-30T23:16:03.400Z,3.15
2024-04-30T23:18:31.340Z,2.90
2024-04-30T23:20:59.159Z,2.85
2024-04-30T23:23:26.657Z,2.90
2024-04-30T23:25:54.370Z,2.95
2024-04-30T23:28:21.950Z,3.03
2024-04-30T23:30:49.566Z,3.10
2024-04-30T23:33:17.228Z,3.30
2024-04-30T23:35:44.874Z,2.90
2024-04-30T23:38:12.591Z,3.45
2024-04-30T23:40:40.153Z,2.92
2024-04-30T23:43:07.882Z,3.20
2024-04-30T23:45:35.679Z,3.15
2024-04-30T23:48:03.361Z,3.60
2024-04-30T23:50:31.072Z,3.47
2024-04-30T23:52:58.575Z,3.38
2024-04-30T23:55:26.130Z,2.95
2024-04-30T23:57:54.441Z,3.08
